West Cornforth, United Kingdom
Current Conditions -  °F | °C
As of 12:50 PM on Friday 31 Oct 2014 (Local Time) from EGNV Reporting Station
Haze Haze  
Wind Chill: 18°   Ceiling: Unl
Heat Index: 18°   Visibility: 3mi
Dew Point: 15°   Wind: 21mph
Humidity: 83%   Direction: 180°S
Pressure: 29.85"   Gusts: NA
Location:  54.7°N, 1.52°W
Report Text: EGNV 311250Z 18018KT 5000 HZ FEW015 18/15 Q1011
Loading
Personal Weather Stations






























Interactive Weather Map
Tropical Storm Tracking
New forecast layout! Learn more

10-Day Weather Forecast

Advertisements
Track Severe Weather on mobile